createdAt,value
2019-02-02T00:00:53.903Z,96742.86
2019-02-02T00:03:25.401Z,96740.95
2019-02-02T00:05:56.293Z,96739.52
2019-02-02T00:08:27.335Z,96744.31
2019-02-02T00:10:58.290Z,96744.22
2019-02-02T00:13:29.351Z,96748.41
2019-02-02T00:16:00.251Z,96751.89
2019-02-02T00:18:31.235Z,96746.61
2019-02-02T00:21:02.041Z,96734.69
2019-02-02T00:23:33.013Z,96733.28
2019-02-02T00:26:04.143Z,96736.27
2019-02-02T00:28:35.175Z,96735.45
2019-02-02T00:31:06.191Z,96729.86
2019-02-02T00:33:37.283Z,96722.73
2019-02-02T00:36:08.184Z,96714.73
2019-02-02T00:38:40.038Z,96712.65
2019-02-02T00:41:10.878Z,96704.38
2019-02-02T00:43:42.064Z,96701.67
2019-02-02T00:46:12.948Z,96712.28
2019-02-02T00:48:43.932Z,96726.50
2019-02-02T00:51:14.843Z,96734.18
2019-02-02T00:53:45.939Z,96736.58
2019-02-02T00:56:16.699Z,96733.09
2019-02-02T00:58:47.928Z,96744.58
2019-02-02T01:01:19.207Z,96754.63
2019-02-02T01:03:50.585Z,96762.28
2019-02-02T01:06:21.495Z,96764.41
2019-02-02T01:08:52.668Z,96769.79
2019-02-02T01:11:23.763Z,96775.13
2019-02-02T01:13:54.859Z,96783.69
2019-02-02T01:16:25.758Z,96786.85
2019-02-02T01:18:56.740Z,96784.58
2019-02-02T01:21:27.629Z,96789.39
2019-02-02T01:23:58.778Z,96789.64
2019-02-02T01:26:29.727Z,96790.97
2019-02-02T01:29:00.755Z,96793.98
2019-02-02T01:31:31.793Z,96791.44
2019-02-02T01:34:02.796Z,96789.86
2019-02-02T01:36:33.948Z,96779.44
2019-02-02T01:39:07.538Z,96785.78
2019-02-02T01:41:39.551Z,96781.98
2019-02-02T01:44:10.448Z,96780.38
2019-02-02T01:46:41.309Z,96784.89
2019-02-02T01:49:12.588Z,96773.42
2019-02-02T01:51:43.515Z,96778.06
2019-02-02T01:54:14.507Z,96777.17
2019-02-02T01:56:45.366Z,96772.38
2019-02-02T01:59:16.370Z,96771.89
2019-02-02T02:01:47.245Z,96778.48
2019-02-02T02:04:18.058Z,96789.85
2019-02-02T02:06:48.838Z,96801.09
2019-02-02T02:09:19.827Z,96803.29
2019-02-02T02:11:50.796Z,96809.98
2019-02-02T02:14:21.848Z,96802.74
2019-02-02T02:16:52.797Z,96790.28
2019-02-02T02:19:23.683Z,96782.23
2019-02-02T02:21:54.570Z,96784.08
2019-02-02T02:24:25.530Z,96783.31
2019-02-02T02:26:56.433Z,96773.73
2019-02-02T02:29:27.536Z,96786.85
2019-02-02T02:31:58.443Z,96794.28
2019-02-02T02:34:29.435Z,96796.65
2019-02-02T02:37:00.284Z,96806.17
2019-02-02T02:39:31.311Z,96805.63
2019-02-02T02:42:02.292Z,96806.61
2019-02-02T02:44:33.255Z,96810.39
2019-02-02T02:47:04.143Z,96804.84
2019-02-02T02:49:35.052Z,96800.95
2019-02-02T02:52:06.038Z,96796.57
2019-02-02T02:54:36.930Z,96785.86
2019-02-02T02:57:07.724Z,96789.41
2019-02-02T02:59:38.584Z,96797.58
2019-02-02T03:02:09.467Z,96795.48
2019-02-02T03:04:40.829Z,96801.71
2019-02-02T03:07:11.763Z,96807.12
2019-02-02T03:09:42.657Z,96794.60
2019-02-02T03:12:13.631Z,96789.27
2019-02-02T03:14:44.741Z,96797.34
2019-02-02T03:17:15.516Z,96814.59
2019-02-02T03:19:46.498Z,96822.55
2019-02-02T03:22:17.383Z,96824.18
2019-02-02T03:24:48.305Z,96813.53
2019-02-02T03:27:19.244Z,96811.19
2019-02-02T03:29:50.075Z,96813.59
2019-02-02T03:32:21.028Z,96818.28
2019-02-02T03:34:52.043Z,96818.66
2019-02-02T03:37:22.916Z,96804.49
2019-02-02T03:39:53.916Z,96803.43
2019-02-02T03:42:24.792Z,96803.50
2019-02-02T03:44:55.925Z,96822.98
2019-02-02T03:47:26.679Z,96827.03
2019-02-02T03:49:57.661Z,96826.48
2019-02-02T03:52:28.471Z,96836.69
2019-02-02T03:54:59.355Z,96834.92
2019-02-02T03:57:30.220Z,96830.92
2019-02-02T04:00:01.323Z,96834.30
2019-02-02T04:02:33.437Z,96838.90
2019-02-02T04:05:04.726Z,96852.93
2019-02-02T04:07:35.636Z,96859.92
2019-02-02T04:10:08.449Z,96860.82
2019-02-02T04:12:39.334Z,96868.36
2019-02-02T04:15:10.665Z,96850.41
2019-02-02T04:17:42.020Z,96841.70
2019-02-02T04:20:15.544Z,96829.45
2019-02-02T04:22:46.465Z,96838.03
2019-02-02T04:25:18.391Z,96847.55
2019-02-02T04:27:49.501Z,96856.41
2019-02-02T04:30:22.396Z,96858.37
2019-02-02T04:32:53.295Z,96863.59
2019-02-02T04:35:24.491Z,96857.56
2019-02-02T04:37:55.398Z,96855.03
2019-02-02T04:40:27.091Z,96864.94
2019-02-02T04:42:57.987Z,96864.69
2019-02-02T04:45:29.168Z,96873.72
2019-02-02T04:48:00.054Z,96868.28
2019-02-02T04:50:30.948Z,96869.61
2019-02-02T04:53:01.635Z,96867.55
2019-02-02T04:55:32.708Z,96865.78
2019-02-02T04:58:03.723Z,96883.92
2019-02-02T05:00:34.719Z,96885.45
2019-02-02T05:03:05.701Z,96895.15
2019-02-02T05:05:36.691Z,96906.63
2019-02-02T05:08:07.588Z,96905.11
2019-02-02T05:10:38.639Z,96908.92
2019-02-02T05:13:09.539Z,96914.83
2019-02-02T05:15:40.834Z,96921.71
2019-02-02T05:18:11.642Z,96923.95
2019-02-02T05:20:42.703Z,96929.39
2019-02-02T05:23:13.604Z,96930.73
2019-02-02T05:25:44.603Z,96936.33
2019-02-02T05:28:15.498Z,96943.24
2019-02-02T05:30:46.551Z,96947.00
2019-02-02T05:33:17.478Z,96947.52
2019-02-02T05:35:48.459Z,96937.97
2019-02-02T05:38:19.335Z,96947.81
2019-02-02T05:40:51.134Z,96945.15
2019-02-02T05:43:22.054Z,96949.97
2019-02-02T05:45:53.314Z,96960.25
2019-02-02T05:48:24.242Z,96964.43
2019-02-02T05:50:55.130Z,96959.86
2019-02-02T05:53:26.011Z,96963.86
2019-02-02T05:55:56.996Z,96970.38
2019-02-02T05:58:28.191Z,96975.67
2019-02-02T06:00:59.191Z,96986.37
2019-02-02T06:03:30.075Z,97000.18
2019-02-02T06:06:00.951Z,96999.18
2019-02-02T06:08:31.726Z,97007.58
2019-02-02T06:11:02.707Z,97008.42
2019-02-02T06:13:33.505Z,97014.52
2019-02-02T06:16:04.702Z,97019.36
2019-02-02T06:18:35.583Z,97020.76
2019-02-02T06:21:06.579Z,97022.03
2019-02-02T06:23:37.383Z,97023.09
2019-02-02T06:26:08.372Z,97029.12
2019-02-02T06:28:39.261Z,97026.33
2019-02-02T06:31:10.333Z,97023.53
2019-02-02T06:33:41.116Z,97025.08
2019-02-02T06:36:12.131Z,97024.95
2019-02-02T06:38:42.911Z,97024.16
2019-02-02T06:41:14.227Z,97036.48
2019-02-02T06:43:45.285Z,97035.09
2019-02-02T06:46:16.275Z,97043.27
2019-02-02T06:48:47.178Z,97043.02
2019-02-02T06:51:18.141Z,97046.75
2019-02-02T06:53:48.952Z,97049.99
2019-02-02T06:56:19.947Z,97051.22
2019-02-02T06:58:50.817Z,97052.35
2019-02-02T07:01:22.179Z,97062.56
2019-02-02T07:03:53.114Z,97066.33
2019-02-02T07:06:24.094Z,97064.76
2019-02-02T07:08:55.293Z,97077.22
2019-02-02T07:11:26.195Z,97074.25
2019-02-02T07:13:57.075Z,97082.18
2019-02-02T07:16:28.061Z,97085.15
2019-02-02T07:18:58.931Z,97087.81
2019-02-02T07:21:29.900Z,97099.06
2019-02-02T07:24:00.711Z,97095.64
2019-02-02T07:26:31.695Z,97098.72
2019-02-02T07:29:02.608Z,97102.42
2019-02-02T07:31:33.699Z,97108.81
2019-02-02T07:34:04.582Z,97116.26
2019-02-02T07:36:35.727Z,97117.83
2019-02-02T07:39:08.413Z,97126.07
2019-02-02T07:41:41.213Z,97132.73
2019-02-02T07:44:12.108Z,97133.06
2019-02-02T07:46:43.103Z,97132.99
2019-02-02T07:49:13.903Z,97141.41
2019-02-02T07:51:44.802Z,97144.89
2019-02-02T07:54:15.664Z,97150.49
2019-02-02T07:56:46.603Z,97155.83
2019-02-02T07:59:17.635Z,97154.09
2019-02-02T08:01:48.647Z,97160.75
2019-02-02T08:04:21.334Z,97160.82
2019-02-02T08:06:53.884Z,97162.43
2019-02-02T08:09:25.920Z,97155.91
2019-02-02T08:11:57.916Z,97152.02
2019-02-02T08:14:28.819Z,97157.02
2019-02-02T08:16:59.743Z,97164.41
2019-02-02T08:19:30.682Z,97157.68
2019-02-02T08:22:01.572Z,97166.91
2019-02-02T08:24:32.455Z,97169.09
2019-02-02T08:27:03.558Z,97172.17
2019-02-02T08:29:34.451Z,97168.00
2019-02-02T08:32:06.100Z,97172.28
2019-02-02T08:34:37.031Z,97169.78
2019-02-02T08:37:08.319Z,97163.83
2019-02-02T08:39:39.515Z,97165.34
2019-02-02T08:42:10.566Z,97165.13
2019-02-02T08:44:41.312Z,97167.63
2019-02-02T08:47:12.487Z,97166.94
2019-02-02T08:49:43.291Z,97165.33
2019-02-02T08:52:14.280Z,97169.42
2019-02-02T08:54:45.057Z,97177.09
2019-02-02T08:57:16.311Z,97176.69
2019-02-02T08:59:47.352Z,97175.86
2019-02-02T09:02:18.180Z,97180.09
2019-02-02T09:04:49.104Z,97193.69
2019-02-02T09:07:20.108Z,97190.10
2019-02-02T09:09:50.988Z,97191.95
2019-02-02T09:12:22.709Z,97202.20
2019-02-02T09:14:53.375Z,97202.74
2019-02-02T09:17:24.370Z,97197.72
2019-02-02T09:19:55.356Z,97206.13
2019-02-02T09:22:26.264Z,97207.08
2019-02-02T09:24:57.311Z,97208.99
2019-02-02T09:27:28.356Z,97211.70
2019-02-02T09:29:59.323Z,97221.11
2019-02-02T09:32:30.308Z,97222.55
2019-02-02T09:35:01.211Z,97222.45
2019-02-02T09:37:32.104Z,97234.66
2019-02-02T09:40:02.985Z,97232.56
2019-02-02T09:42:34.675Z,97237.41
2019-02-02T09:45:07.310Z,97239.02
2019-02-02T09:47:38.305Z,97243.52
2019-02-02T09:50:11.235Z,97242.36
2019-02-02T09:52:42.382Z,97245.09
2019-02-02T09:55:14.957Z,97243.44
2019-02-02T09:57:45.939Z,97251.27
2019-02-02T10:00:25.707Z,97258.09
2019-02-02T10:02:56.760Z,97255.61
2019-02-02T10:05:28.045Z,97260.37
2019-02-02T10:07:59.211Z,97267.59
2019-02-02T10:10:31.769Z,97271.05
2019-02-02T10:13:02.943Z,97271.00
2019-02-02T10:15:33.833Z,97279.60
2019-02-02T10:18:05.147Z,97272.77
2019-02-02T10:20:36.006Z,97277.59
2019-02-02T10:23:07.325Z,97278.84
2019-02-02T10:25:39.234Z,97280.70
2019-02-02T10:28:10.230Z,97281.16
2019-02-02T10:30:43.298Z,97279.22
2019-02-02T10:33:15.178Z,97285.80
2019-02-02T10:35:46.049Z,97289.97
2019-02-02T10:38:17.053Z,97294.48
2019-02-02T10:40:47.941Z,97300.61
2019-02-02T10:43:19.699Z,97303.08
2019-02-02T10:45:50.634Z,97303.20
2019-02-02T10:48:21.619Z,97301.59
2019-02-02T10:50:52.385Z,97308.00
2019-02-02T10:53:23.383Z,97306.56
2019-02-02T10:55:54.262Z,97313.11
2019-02-02T10:58:25.251Z,97312.58
2019-02-02T11:00:56.265Z,97308.43
2019-02-02T11:03:27.254Z,97307.16
2019-02-02T11:05:58.222Z,97306.91
2019-02-02T11:08:29.394Z,97302.83
2019-02-02T11:11:00.456Z,97304.17
2019-02-02T11:13:31.520Z,97304.44
2019-02-02T11:16:02.283Z,97307.68
2019-02-02T11:18:33.502Z,97306.73
2019-02-02T11:21:04.639Z,97313.23
2019-02-02T11:23:35.962Z,97301.03
2019-02-02T11:26:06.888Z,97304.02
2019-02-02T11:28:38.010Z,97292.63
2019-02-02T11:31:08.856Z,97290.20
2019-02-02T11:33:40.093Z,97282.20
2019-02-02T11:36:11.048Z,97281.74
2019-02-02T11:38:42.014Z,97274.40
2019-02-02T11:41:12.917Z,97274.89
2019-02-02T11:43:44.489Z,97269.98
2019-02-02T11:46:15.406Z,97267.77
2019-02-02T11:48:46.791Z,97270.20
2019-02-02T11:51:17.731Z,97280.41
2019-02-02T11:53:48.832Z,97272.73
2019-02-02T11:56:19.689Z,97283.51
2019-02-02T11:58:50.280Z,97280.64
2019-02-02T12:01:21.245Z,97293.31
2019-02-02T12:03:52.305Z,97293.05
2019-02-02T12:06:23.203Z,97298.38
2019-02-02T12:08:54.101Z,97306.25
2019-02-02T12:11:24.982Z,97301.70
2019-02-02T12:13:56.409Z,97306.52
2019-02-02T12:16:27.268Z,97307.14
2019-02-02T12:18:58.350Z,97306.32
2019-02-02T12:21:29.258Z,97315.46
2019-02-02T12:24:12.753Z,97307.41
2019-02-02T12:26:33.090Z,97299.98
2019-02-02T12:29:04.092Z,97304.87
2019-02-02T12:31:34.949Z,97309.75
2019-02-02T12:34:06.375Z,97318.92
2019-02-02T12:36:37.152Z,97318.79
2019-02-02T12:39:11.708Z,97321.80
2019-02-02T12:41:42.709Z,97321.60
2019-02-02T12:44:13.850Z,97324.88
2019-02-02T12:46:44.804Z,97331.53
2019-02-02T12:49:15.696Z,97342.01
2019-02-02T12:51:46.468Z,97344.92
2019-02-02T12:54:17.358Z,97352.20
2019-02-02T12:56:48.126Z,97350.39
2019-02-02T12:59:19.130Z,97349.37
2019-02-02T13:01:50.101Z,97358.28
2019-02-02T13:04:21.099Z,97358.08
2019-02-02T13:06:52.309Z,97364.79
2019-02-02T13:09:23.546Z,97367.77
2019-02-02T13:11:56.171Z,97369.66
2019-02-02T13:14:27.192Z,97365.84
2019-02-02T13:16:59.888Z,97376.14
2019-02-02T13:19:30.526Z,97379.06
2019-02-02T13:22:01.421Z,97374.83
2019-02-02T13:24:32.399Z,97376.08
2019-02-02T13:27:03.297Z,97382.27
2019-02-02T13:29:34.273Z,97384.62
2019-02-02T13:32:05.161Z,97391.30
2019-02-02T13:34:36.123Z,97398.05
2019-02-02T13:37:07.034Z,97387.97
2019-02-02T13:39:38.059Z,97393.80
2019-02-02T13:42:08.934Z,97391.92
2019-02-02T13:44:40.693Z,97388.75
2019-02-02T13:47:11.529Z,97397.23
2019-02-02T13:49:42.709Z,97396.97
2019-02-02T13:52:13.589Z,97397.14
2019-02-02T13:54:44.484Z,97401.40
2019-02-02T13:57:15.532Z,97411.03
2019-02-02T13:59:46.284Z,97411.78
2019-02-02T14:02:17.644Z,97418.11
2019-02-02T14:04:48.845Z,97422.37
2019-02-02T14:07:19.750Z,97428.34
2019-02-02T14:09:51.015Z,97430.86
2019-02-02T14:12:21.929Z,97429.58
2019-02-02T14:14:52.823Z,97426.38
2019-02-02T14:17:23.584Z,97438.14
2019-02-02T14:19:54.497Z,97447.17
2019-02-02T14:22:25.365Z,97442.48
2019-02-02T14:24:56.414Z,97455.95
2019-02-02T14:27:27.739Z,97447.25
2019-02-02T14:29:58.824Z,97450.84
2019-02-02T14:32:29.732Z,97458.97
2019-02-02T14:35:00.630Z,97463.00
2019-02-02T14:37:32.544Z,97466.95
2019-02-02T14:40:03.613Z,97468.86
2019-02-02T14:42:34.425Z,97473.08
2019-02-02T14:45:07.765Z,97476.58
2019-02-02T14:47:39.065Z,97478.48
2019-02-02T14:50:12.724Z,97489.23
2019-02-02T14:52:43.692Z,97485.72
2019-02-02T14:55:16.862Z,97491.02
2019-02-02T14:57:47.413Z,97489.27
2019-02-02T15:00:23.416Z,97486.31
2019-02-02T15:02:54.580Z,97492.78
2019-02-02T15:05:25.607Z,97493.91
2019-02-02T15:07:57.734Z,97498.69
2019-02-02T15:10:28.805Z,97504.88
2019-02-02T15:12:59.625Z,97500.53
2019-02-02T15:15:30.690Z,97503.97
2019-02-02T15:18:01.497Z,97506.95
2019-02-02T15:20:37.139Z,97511.50
2019-02-02T15:23:08.468Z,97515.56
2019-02-02T15:25:39.658Z,97525.39
2019-02-02T15:28:11.600Z,97535.56
2019-02-02T15:30:42.742Z,97533.55
2019-02-02T15:33:13.662Z,97528.66
2019-02-02T15:35:44.642Z,97525.34
2019-02-02T15:38:16.994Z,97533.23
2019-02-02T15:40:58.464Z,97531.07
2019-02-02T15:43:22.403Z,97534.53
2019-02-02T15:45:53.326Z,97540.35
2019-02-02T15:48:24.109Z,97538.97
2019-02-02T15:50:55.033Z,97537.86
2019-02-02T15:53:25.905Z,97531.67
2019-02-02T15:55:57.241Z,97527.97
2019-02-02T15:58:28.182Z,97532.97
2019-02-02T16:00:59.220Z,97536.41
2019-02-02T16:03:29.956Z,97537.04
2019-02-02T16:06:00.954Z,97539.53
2019-02-02T16:08:31.732Z,97551.80
2019-02-02T16:11:02.719Z,97563.80
2019-02-02T16:13:33.596Z,97562.83
2019-02-02T16:16:04.807Z,97564.44
2019-02-02T16:18:35.710Z,97559.20
2019-02-02T16:21:06.572Z,97559.39
2019-02-02T16:23:37.355Z,97568.77
2019-02-02T16:26:08.300Z,97574.98
2019-02-02T16:28:39.264Z,97587.17
2019-02-02T16:31:10.242Z,97588.13
2019-02-02T16:33:41.237Z,97594.45
2019-02-02T16:36:12.292Z,97593.17
2019-02-02T16:38:43.193Z,97592.06
2019-02-02T16:41:14.379Z,97592.27
2019-02-02T16:43:45.192Z,97592.06
2019-02-02T16:46:16.283Z,97601.91
2019-02-02T16:48:47.149Z,97603.98
2019-02-02T16:51:17.959Z,97602.59
2019-02-02T16:53:48.832Z,97605.19
2019-02-02T16:56:19.719Z,97606.45
2019-02-02T16:58:50.600Z,97611.01
2019-02-02T17:01:21.702Z,97614.67
2019-02-02T17:03:52.697Z,97616.26
2019-02-02T17:06:23.940Z,97613.52
2019-02-02T17:08:54.860Z,97611.85
2019-02-02T17:11:25.913Z,97619.31
2019-02-02T17:13:56.758Z,97623.09
2019-02-02T17:16:27.662Z,97633.20
2019-02-02T17:18:58.617Z,97629.48
2019-02-02T17:21:29.618Z,97633.75
2019-02-02T17:24:00.304Z,97647.72
2019-02-02T17:26:31.369Z,97651.80
2019-02-02T17:29:02.270Z,97665.23
2019-02-02T17:31:33.358Z,97663.28
2019-02-02T17:34:04.456Z,97669.33
2019-02-02T17:36:40.522Z,97677.34
2019-02-02T17:39:11.772Z,97679.77
2019-02-02T17:41:42.709Z,97683.91
2019-02-02T17:44:13.534Z,97693.10
2019-02-02T17:46:45.352Z,97696.33
2019-02-02T17:49:16.349Z,97702.72
2019-02-02T17:51:47.383Z,97715.59
2019-02-02T17:54:18.424Z,97728.58
2019-02-02T17:56:49.297Z,97736.20
2019-02-02T17:59:20.423Z,97746.33
2019-02-02T18:01:51.585Z,97752.00
2019-02-02T18:04:22.578Z,97758.34
2019-02-02T18:06:53.338Z,97764.97
2019-02-02T18:09:24.914Z,97769.74
2019-02-02T18:11:55.908Z,97783.37
2019-02-02T18:14:26.954Z,97780.63
2019-02-02T18:16:57.901Z,97786.05
2019-02-02T18:19:28.814Z,97786.56
2019-02-02T18:21:59.667Z,97793.97
2019-02-02T18:24:30.735Z,97800.70
2019-02-02T18:27:01.773Z,97800.83
2019-02-02T18:29:32.751Z,97808.52
2019-02-02T18:32:12.718Z,97814.09
2019-02-02T18:34:36.545Z,97809.84
2019-02-02T18:37:07.459Z,97813.34
2019-02-02T18:39:38.634Z,97823.70
2019-02-02T18:42:09.420Z,97824.80
2019-02-02T18:44:40.882Z,97838.43
2019-02-02T18:47:12.644Z,97839.77
2019-02-02T18:49:44.649Z,97841.27
2019-02-02T18:52:16.550Z,97852.20
2019-02-02T18:54:47.565Z,97850.16
2019-02-02T18:57:18.335Z,97850.16
2019-02-02T18:59:49.278Z,97854.41
2019-02-02T19:02:20.351Z,97853.03
2019-02-02T19:05:02.930Z,97854.17
2019-02-02T19:07:23.825Z,97848.00
2019-02-02T19:09:55.921Z,97856.03
2019-02-02T19:12:26.493Z,97857.91
2019-02-02T19:14:57.110Z,97857.20
2019-02-02T19:17:32.093Z,97861.50
2019-02-02T19:20:03.793Z,97857.56
2019-02-02T19:22:34.581Z,97865.23
2019-02-02T19:25:06.593Z,97865.67
2019-02-02T19:27:37.481Z,97860.28
2019-02-02T19:30:12.175Z,97872.88
2019-02-02T19:32:43.060Z,97879.99
2019-02-02T19:35:16.432Z,97879.52
2019-02-02T19:37:47.478Z,97878.03
2019-02-02T19:40:20.749Z,97885.11
2019-02-02T19:42:51.645Z,97892.83
2019-02-02T19:45:24.050Z,97893.81
2019-02-02T19:47:54.929Z,97894.55
2019-02-02T19:50:26.738Z,97897.93
2019-02-02T19:52:57.627Z,97904.03
2019-02-02T19:55:28.586Z,97905.80
2019-02-02T19:57:59.508Z,97912.13
2019-02-02T20:00:31.918Z,97922.08
2019-02-02T20:03:03.130Z,97927.16
2019-02-02T20:05:34.227Z,97938.68
2019-02-02T20:08:05.416Z,97951.23
2019-02-02T20:10:37.121Z,97954.65
2019-02-02T20:13:07.997Z,97948.78
2019-02-02T20:15:39.398Z,97953.23
2019-02-02T20:18:10.835Z,97960.23
2019-02-02T20:20:41.885Z,97962.95
2019-02-02T20:23:12.794Z,97966.97
2019-02-02T20:25:43.777Z,97967.58
2019-02-02T20:28:14.650Z,97974.58
2019-02-02T20:30:45.653Z,97982.42
2019-02-02T20:33:19.777Z,97986.77
2019-02-02T20:35:49.169Z,97992.40
2019-02-02T20:38:20.353Z,97996.41
2019-02-02T20:40:51.033Z,98004.02
2019-02-02T20:43:22.023Z,98002.88
2019-02-02T20:45:53.024Z,98005.55
2019-02-02T20:48:23.716Z,98008.45
2019-02-02T20:50:54.603Z,98005.92
2019-02-02T20:53:25.509Z,98009.50
2019-02-02T20:55:56.552Z,98012.78
2019-02-02T20:58:27.469Z,98022.88
2019-02-02T21:00:58.750Z,98017.95
2019-02-02T21:03:29.550Z,98021.08
2019-02-02T21:06:00.638Z,98023.30
2019-02-02T21:08:31.424Z,98026.05
2019-02-02T21:11:02.317Z,98026.50
2019-02-02T21:13:33.104Z,98031.77
2019-02-02T21:16:04.478Z,98036.60
2019-02-02T21:18:35.381Z,98039.05
2019-02-02T21:21:07.078Z,98033.33
2019-02-02T21:23:38.062Z,98036.23
2019-02-02T21:26:09.117Z,98036.89
2019-02-02T21:28:50.116Z,98048.09
2019-02-02T21:31:13.095Z,98049.61
2019-02-02T21:33:43.979Z,98051.31
2019-02-02T21:36:14.989Z,98049.75
2019-02-02T21:38:45.865Z,98052.80
2019-02-02T21:41:18.536Z,98045.88
2019-02-02T21:43:49.596Z,98048.09
2019-02-02T21:46:20.580Z,98053.44
2019-02-02T21:48:51.465Z,98049.00
2019-02-02T21:51:22.644Z,98046.47
2019-02-02T21:53:53.420Z,98049.75
2019-02-02T21:56:24.479Z,98039.64
2019-02-02T21:58:55.420Z,98050.02
2019-02-02T22:01:26.420Z,98059.22
2019-02-02T22:03:57.281Z,98057.39
2019-02-02T22:06:28.648Z,98057.53
2019-02-02T22:08:59.584Z,98065.68
2019-02-02T22:11:30.485Z,98070.20
2019-02-02T22:14:01.348Z,98062.27
2019-02-02T22:16:32.434Z,98075.03
2019-02-02T22:19:03.444Z,98080.32
2019-02-02T22:21:34.617Z,98084.47
2019-02-02T22:24:05.506Z,98088.70
2019-02-02T22:26:37.149Z,98091.38
2019-02-02T22:29:08.214Z,98097.02
2019-02-02T22:31:39.215Z,98099.52
2019-02-02T22:34:09.979Z,98097.73
2019-02-02T22:36:41.004Z,98096.72
2019-02-02T22:39:11.875Z,98105.59
2019-02-02T22:41:44.114Z,98105.24
2019-02-02T22:44:14.881Z,98107.57
2019-02-02T22:46:45.848Z,98112.25
2019-02-02T22:49:16.540Z,98117.14
2019-02-02T22:51:47.480Z,98121.62
2019-02-02T22:54:18.317Z,98123.73
2019-02-02T22:56:49.592Z,98127.33
2019-02-02T22:59:20.409Z,98132.95
2019-02-02T23:01:57.565Z,98136.73
2019-02-02T23:04:53.724Z,98140.02
2019-02-02T23:07:59.470Z,98141.13
2019-02-02T23:11:09.638Z,98143.53
2019-02-02T23:14:14.199Z,98151.67
2019-02-02T23:16:44.998Z,98150.66
2019-02-02T23:19:15.993Z,98155.78
2019-02-02T23:21:46.764Z,98157.21
2019-02-02T23:24:17.648Z,98159.84
2019-02-02T23:26:48.529Z,98156.73
2019-02-02T23:29:19.692Z,98157.17
2019-02-02T23:31:50.896Z,98156.73
2019-02-02T23:34:22.097Z,98156.22
2019-02-02T23:36:56.170Z,98156.24
2019-02-02T23:39:25.811Z,98154.91
2019-02-02T23:41:56.725Z,98163.74
2019-02-02T23:44:27.712Z,98165.18
2019-02-02T23:46:58.644Z,98171.66
2019-02-02T23:49:29.586Z,98177.71
2019-02-02T23:52:00.493Z,98183.39
2019-02-02T23:54:31.369Z,98193.13
2019-02-02T23:57:02.249Z,98199.18
2019-02-02T23:59:35.151Z,98198.86
